createdAt,value
2023-04-20T00:01:26.078Z,4.25
2023-04-20T00:03:54.171Z,4.63
2023-04-20T00:06:22.787Z,4.78
2023-04-20T00:08:50.888Z,3.88
2023-04-20T00:11:20.687Z,3.83
2023-04-20T00:13:48.591Z,3.63
2023-04-20T00:16:16.492Z,3.88
2023-04-20T00:18:46.674Z,3.65
2023-04-20T00:21:15.021Z,3.17
2023-04-20T00:23:42.913Z,3.78
2023-04-20T00:26:10.795Z,3.50
2023-04-20T00:28:41.305Z,3.45
2023-04-20T00:31:09.368Z,3.22
2023-04-20T00:33:37.366Z,3.33
2023-04-20T00:36:05.851Z,3.53
2023-04-20T00:38:33.711Z,3.38
2023-04-20T00:41:01.760Z,3.58
2023-04-20T00:43:32.588Z,3.30
2023-04-20T00:46:03.703Z,3.30
2023-04-20T00:48:31.636Z,3.45
2023-04-20T00:51:00.167Z,3.72
2023-04-20T00:53:29.574Z,3.80
2023-04-20T00:55:57.728Z,3.67
2023-04-20T00:58:25.687Z,4.05
2023-04-20T01:00:53.583Z,4.00
2023-04-20T01:03:23.330Z,4.05
2023-04-20T01:05:52.003Z,3.97
2023-04-20T01:08:26.972Z,4.10
2023-04-20T01:10:56.490Z,4.07
2023-04-20T01:13:24.486Z,4.18
2023-04-20T01:15:52.523Z,4.47
2023-04-20T01:18:21.887Z,3.97
2023-04-20T01:20:49.707Z,3.83
2023-04-20T01:23:18.936Z,4.60
2023-04-20T01:25:46.794Z,4.50
2023-04-20T01:28:15.780Z,4.20
2023-04-20T01:30:43.637Z,4.07
2023-04-20T01:33:11.477Z,3.95
2023-04-20T01:35:42.844Z,4.40
2023-04-20T01:38:10.769Z,4.50
2023-04-20T01:40:40.491Z,4.60
2023-04-20T01:43:08.358Z,4.47
2023-04-20T01:45:36.219Z,4.28
2023-04-20T01:48:04.191Z,4.45
2023-04-20T01:50:34.056Z,4.30
2023-04-20T01:53:02.020Z,4.50
2023-04-20T01:55:29.913Z,4.13
2023-04-20T01:57:59.228Z,4.03
2023-04-20T02:00:27.399Z,4.03
2023-04-20T02:02:56.039Z,3.97
2023-04-20T02:05:24.383Z,4.20
2023-04-20T02:07:52.389Z,4.00
2023-04-20T02:10:20.345Z,4.25
2023-04-20T02:12:50.236Z,4.00
2023-04-20T02:15:19.752Z,4.38
2023-04-20T02:17:52.213Z,3.67
2023-04-20T02:20:20.862Z,3.78
2023-04-20T02:22:48.820Z,3.60
2023-04-20T02:25:16.777Z,3.63
2023-04-20T02:27:44.564Z,3.67
2023-04-20T02:30:13.678Z,3.65
2023-04-20T02:32:45.044Z,4.18
2023-04-20T02:35:12.911Z,3.60
2023-04-20T02:37:40.790Z,4.00
2023-04-20T02:40:09.817Z,3.50
2023-04-20T02:42:37.698Z,3.40
2023-04-20T02:45:10.060Z,4.00
2023-04-20T02:47:38.704Z,3.75
2023-04-20T02:50:09.590Z,3.80
2023-04-20T02:52:53.322Z,3.40
2023-04-20T02:55:21.344Z,4.28
2023-04-20T02:57:52.254Z,3.42
2023-04-20T03:00:21.814Z,3.70
2023-04-20T03:03:04.999Z,3.53
2023-04-20T03:05:34.613Z,3.58
2023-04-20T03:08:05.057Z,4.07
2023-04-20T03:10:33.451Z,4.18
2023-04-20T03:13:15.571Z,3.95
2023-04-20T03:15:52.360Z,4.82
2023-04-20T03:18:41.073Z,3.55
2023-04-20T03:21:10.872Z,4.13
2023-04-20T03:23:38.759Z,4.00
2023-04-20T03:26:08.562Z,3.70
2023-04-20T03:28:50.914Z,4.18
2023-04-20T03:31:22.746Z,3.80
2023-04-20T03:33:52.064Z,3.88
2023-04-20T03:36:21.356Z,4.07
2023-04-20T03:38:49.234Z,4.03
2023-04-20T03:41:17.164Z,3.72
2023-04-20T03:43:45.036Z,3.97
2023-04-20T03:46:12.933Z,3.85
2023-04-20T03:48:40.797Z,3.70
2023-04-20T03:51:08.656Z,3.97
2023-04-20T03:53:39.582Z,4.03
2023-04-20T03:56:09.411Z,3.33
2023-04-20T03:58:37.644Z,3.88
2023-04-20T04:01:26.397Z,3.75
2023-04-20T04:03:54.630Z,4.25
2023-04-20T04:06:22.582Z,3.88
2023-04-20T04:08:51.808Z,4.43
2023-04-20T04:11:19.848Z,4.45
2023-04-20T04:13:48.212Z,4.20
2023-04-20T04:16:16.548Z,4.00
2023-04-20T04:18:45.298Z,4.25
2023-04-20T04:21:13.512Z,4.10
2023-04-20T04:23:45.671Z,4.60
2023-04-20T04:26:41.462Z,4.40
2023-04-20T04:29:10.481Z,4.60
2023-04-20T04:31:38.394Z,4.78
2023-04-20T04:34:13.904Z,4.63
2023-04-20T04:36:46.706Z,4.50
2023-04-20T04:39:18.262Z,5.15
2023-04-20T04:41:57.738Z,4.53
2023-04-20T04:44:33.259Z,4.50
2023-04-20T04:47:05.467Z,4.80
2023-04-20T04:49:33.551Z,5.07
2023-04-20T04:52:01.461Z,4.97
2023-04-20T04:54:29.355Z,4.68
2023-04-20T04:56:59.221Z,4.57
2023-04-20T04:59:27.220Z,4.90
2023-04-20T05:01:55.107Z,5.07
2023-04-20T05:04:23.143Z,5.30
2023-04-20T05:06:51.019Z,5.22
2023-04-20T05:09:19.441Z,5.22
2023-04-20T05:11:47.665Z,4.95
2023-04-20T05:14:16.853Z,5.38
2023-04-20T05:16:44.753Z,5.25
2023-04-20T05:19:12.740Z,5.15
2023-04-20T05:21:40.542Z,5.35
2023-04-20T05:24:08.608Z,5.15
2023-04-20T05:26:36.739Z,5.43
2023-04-20T05:29:04.686Z,4.93
2023-04-20T05:31:34.166Z,5.72
2023-04-20T05:34:03.002Z,5.70
2023-04-20T05:36:31.156Z,5.18
2023-04-20T05:38:58.988Z,5.55
2023-04-20T05:41:27.683Z,5.65
2023-04-20T05:43:56.230Z,6.07
2023-04-20T05:46:24.403Z,5.68
2023-04-20T05:48:53.638Z,5.38
2023-04-20T05:51:21.974Z,6.07
2023-04-20T05:53:49.821Z,5.68
2023-04-20T05:56:18.519Z,5.03
2023-04-20T05:58:46.734Z,5.18
2023-04-20T06:01:14.676Z,5.22
2023-04-20T06:03:42.720Z,5.00
2023-04-20T06:06:12.191Z,5.30
2023-04-20T06:08:40.103Z,5.28
2023-04-20T06:11:07.997Z,5.45
2023-04-20T06:13:35.880Z,5.03
2023-04-20T06:16:03.760Z,5.07
2023-04-20T06:18:31.610Z,5.45
2023-04-20T06:21:00.145Z,5.13
2023-04-20T06:23:29.352Z,4.82
2023-04-20T06:25:57.170Z,4.70
2023-04-20T06:28:25.032Z,4.18
2023-04-20T06:30:52.877Z,4.28
2023-04-20T06:33:20.853Z,4.45
2023-04-20T06:35:48.707Z,4.65
2023-04-20T06:38:16.555Z,4.80
2023-04-20T06:40:45.781Z,4.47
2023-04-20T06:43:13.777Z,4.65
2023-04-20T06:45:41.685Z,4.30
2023-04-20T06:48:20.252Z,4.70
2023-04-20T06:50:55.850Z,4.15
2023-04-20T06:53:23.829Z,4.25
2023-04-20T06:55:54.896Z,4.68
2023-04-20T06:58:22.867Z,4.30
2023-04-20T07:00:50.870Z,4.20
2023-04-20T07:03:19.766Z,4.63
2023-04-20T07:05:47.693Z,3.35
2023-04-20T07:08:16.219Z,4.18
2023-04-20T07:10:44.088Z,4.03
2023-04-20T07:13:13.356Z,4.55
2023-04-20T07:15:41.105Z,4.50
2023-04-20T07:18:08.933Z,4.38
2023-04-20T07:20:36.818Z,4.32
2023-04-20T07:23:04.997Z,3.97
2023-04-20T07:25:32.956Z,4.45
2023-04-20T07:28:01.033Z,4.50
2023-04-20T07:30:31.236Z,4.40
2023-04-20T07:32:59.152Z,4.10
2023-04-20T07:35:27.074Z,3.70
2023-04-20T07:37:54.860Z,3.90
2023-04-20T07:40:22.826Z,3.80
2023-04-20T07:42:50.812Z,3.80
2023-04-20T07:45:18.647Z,3.70
2023-04-20T07:47:51.271Z,3.70
2023-04-20T07:50:19.387Z,3.88
2023-04-20T07:52:47.282Z,3.42
2023-04-20T07:55:15.806Z,3.90
2023-04-20T07:57:43.727Z,3.45
2023-04-20T08:00:13.386Z,3.50
2023-04-20T08:02:41.881Z,3.65
2023-04-20T08:05:11.867Z,3.20
2023-04-20T08:07:39.916Z,3.50
2023-04-20T08:10:08.570Z,3.00
2023-04-20T08:12:36.767Z,3.00
2023-04-20T08:15:06.836Z,3.20
2023-04-20T08:17:34.903Z,2.90
2023-04-20T08:20:03.628Z,2.80
2023-04-20T08:22:33.462Z,2.67
2023-04-20T08:25:01.256Z,2.80
2023-04-20T08:27:29.756Z,3.00
2023-04-20T08:29:57.691Z,2.92
2023-04-20T08:32:26.662Z,2.80
2023-04-20T08:34:55.066Z,2.72
2023-04-20T08:37:23.275Z,2.30
2023-04-20T08:39:52.542Z,2.38
2023-04-20T08:42:21.025Z,2.40
2023-04-20T08:44:48.950Z,2.70
2023-04-20T08:47:16.851Z,2.60
2023-04-20T08:49:47.432Z,2.38
2023-04-20T08:52:15.527Z,2.88
2023-04-20T08:54:55.276Z,2.45
2023-04-20T08:57:25.823Z,2.35
2023-04-20T08:59:53.752Z,2.45
2023-04-20T09:02:21.918Z,2.28
2023-04-20T09:04:50.109Z,1.98
2023-04-20T09:07:19.790Z,2.08
2023-04-20T09:09:57.372Z,2.30
2023-04-20T09:12:26.932Z,2.25
2023-04-20T09:14:55.909Z,2.00
2023-04-20T09:17:34.688Z,2.28
2023-04-20T09:20:04.073Z,2.10
2023-04-20T09:22:32.817Z,2.22
2023-04-20T09:25:01.179Z,2.20
2023-04-20T09:27:31.095Z,1.92
2023-04-20T09:30:01.351Z,1.23
2023-04-20T09:32:29.716Z,1.40
2023-04-20T09:34:57.794Z,1.58
2023-04-20T09:37:25.797Z,1.70
2023-04-20T09:40:00.593Z,1.63
2023-04-20T09:42:30.874Z,1.67
2023-04-20T09:44:59.182Z,1.42
2023-04-20T09:47:27.393Z,1.60
2023-04-20T09:49:56.366Z,1.50
2023-04-20T09:52:27.006Z,1.33
2023-04-20T09:54:55.945Z,1.40
2023-04-20T09:57:26.449Z,1.40
2023-04-20T09:59:57.412Z,1.23
2023-04-20T10:02:25.389Z,1.60
2023-04-20T10:04:57.345Z,1.50
2023-04-20T10:07:26.984Z,1.60
2023-04-20T10:10:09.322Z,1.30
2023-04-20T10:12:48.560Z,1.40
2023-04-20T10:15:18.290Z,1.40
2023-04-20T10:17:46.401Z,1.40
2023-04-20T10:20:22.459Z,1.50
2023-04-20T10:22:52.519Z,1.23
2023-04-20T10:25:22.097Z,1.30
2023-04-20T10:27:58.733Z,1.20
2023-04-20T10:30:29.693Z,1.10
2023-04-20T10:33:07.780Z,1.10
2023-04-20T10:35:47.883Z,1.13
2023-04-20T10:38:16.137Z,1.20
2023-04-20T10:40:44.224Z,1.65
2023-04-20T10:43:22.388Z,1.50
2023-04-20T10:45:52.035Z,1.40
2023-04-20T10:48:19.993Z,1.20
2023-04-20T10:50:48.049Z,1.20
2023-04-20T10:53:20.639Z,1.33
2023-04-20T10:55:51.446Z,1.30
2023-04-20T10:58:23.638Z,1.10
2023-04-20T11:01:03.791Z,1.42
2023-04-20T11:03:34.350Z,1.38
2023-04-20T11:06:03.953Z,1.50
2023-04-20T11:08:40.046Z,1.63
2023-04-20T11:11:19.352Z,1.70
2023-04-20T11:13:47.364Z,2.40
2023-04-20T11:16:18.073Z,1.65
2023-04-20T11:18:51.522Z,1.80
2023-04-20T11:21:19.759Z,1.83
2023-04-20T11:23:47.890Z,1.27
2023-04-20T11:26:16.844Z,1.60
2023-04-20T11:28:55.839Z,1.77
2023-04-20T11:31:27.937Z,1.45
2023-04-20T11:33:55.911Z,1.75
2023-04-20T11:36:26.490Z,2.78
2023-04-20T11:38:54.392Z,2.30
2023-04-20T11:41:23.131Z,2.55
2023-04-20T11:43:51.334Z,2.70
2023-04-20T11:46:20.957Z,2.20
2023-04-20T11:48:50.279Z,2.50
2023-04-20T11:51:18.159Z,2.25
2023-04-20T11:53:46.557Z,2.72
2023-04-20T11:56:14.429Z,1.95
2023-04-20T11:58:42.224Z,1.80
2023-04-20T12:01:10.292Z,1.90
2023-04-20T12:03:38.291Z,2.13
2023-04-20T12:06:07.706Z,1.90
2023-04-20T12:08:35.856Z,2.17
2023-04-20T12:11:03.725Z,1.85
2023-04-20T12:13:31.634Z,2.22
2023-04-20T12:15:59.593Z,2.42
2023-04-20T12:18:27.442Z,2.50
2023-04-20T12:20:55.305Z,2.50
2023-04-20T12:23:25.410Z,2.90
2023-04-20T12:25:53.334Z,2.92
2023-04-20T12:28:21.186Z,2.92
2023-04-20T12:30:49.074Z,3.00
2023-04-20T12:33:17.080Z,3.22
2023-04-20T12:35:45.210Z,3.50
2023-04-20T12:38:14.549Z,3.58
2023-04-20T12:40:44.064Z,3.70
2023-04-20T12:43:11.929Z,3.22
2023-04-20T12:45:39.771Z,3.55
2023-04-20T12:48:07.698Z,3.75
2023-04-20T12:50:37.227Z,3.33
2023-04-20T12:53:06.572Z,3.03
2023-04-20T12:55:34.939Z,3.38
2023-04-20T12:58:04.317Z,3.60
2023-04-20T13:00:32.166Z,3.60
2023-04-20T13:03:00.148Z,3.17
2023-04-20T13:05:29.290Z,3.33
2023-04-20T13:07:57.210Z,3.83
2023-04-20T13:10:25.213Z,3.25
2023-04-20T13:12:53.212Z,3.20
2023-04-20T13:15:31.768Z,3.25
2023-04-20T13:18:06.584Z,3.70
2023-04-20T13:20:34.615Z,3.97
2023-04-20T13:23:03.990Z,4.10
2023-04-20T13:25:33.523Z,3.72
2023-04-20T13:28:02.750Z,3.30
2023-04-20T13:30:32.792Z,3.58
2023-04-20T13:33:00.708Z,3.42
2023-04-20T13:35:28.603Z,3.30
2023-04-20T13:37:56.505Z,3.10
2023-04-20T13:40:24.392Z,3.08
2023-04-20T13:42:52.190Z,3.47
2023-04-20T13:45:20.059Z,3.05
2023-04-20T13:47:49.306Z,3.28
2023-04-20T13:50:17.186Z,3.45
2023-04-20T13:52:45.037Z,3.78
2023-04-20T13:55:12.914Z,3.72
2023-04-20T13:57:40.842Z,3.40
2023-04-20T14:00:10.134Z,3.17
2023-04-20T14:02:38.082Z,3.88
2023-04-20T14:05:09.357Z,3.50
2023-04-20T14:07:37.292Z,3.75
2023-04-20T14:10:05.992Z,3.42
2023-04-20T14:12:34.737Z,3.50
2023-04-20T14:15:02.757Z,3.40
2023-04-20T14:17:38.649Z,3.40
2023-04-20T14:20:16.479Z,4.10
2023-04-20T14:22:44.470Z,3.85
2023-04-20T14:25:12.541Z,3.70
2023-04-20T14:27:40.492Z,4.00
2023-04-20T14:30:09.923Z,3.50
2023-04-20T14:32:39.220Z,4.00
2023-04-20T14:35:09.113Z,3.58
2023-04-20T14:37:36.927Z,4.05
2023-04-20T14:40:07.129Z,3.75
2023-04-20T14:42:34.967Z,3.75
2023-04-20T14:45:02.752Z,3.53
2023-04-20T14:47:30.677Z,3.22
2023-04-20T14:49:59.865Z,3.80
2023-04-20T14:52:27.808Z,3.53
2023-04-20T14:54:55.600Z,3.58
2023-04-20T14:57:23.413Z,3.22
2023-04-20T14:59:51.227Z,3.75
2023-04-20T15:02:19.383Z,3.60
2023-04-20T15:04:47.488Z,3.60
2023-04-20T15:07:17.767Z,3.88
2023-04-20T15:09:46.336Z,3.45
2023-04-20T15:12:14.136Z,3.53
2023-04-20T15:14:42.388Z,3.33
2023-04-20T15:17:11.567Z,3.75
2023-04-20T15:19:45.705Z,4.10
2023-04-20T15:22:13.591Z,3.70
2023-04-20T15:24:42.837Z,4.22
2023-04-20T15:27:11.203Z,3.80
2023-04-20T15:29:39.065Z,3.65
2023-04-20T15:32:07.521Z,3.58
2023-04-20T15:34:35.585Z,4.18
2023-04-20T15:37:03.479Z,4.18
2023-04-20T15:39:31.427Z,3.38
2023-04-20T15:42:03.004Z,3.60
2023-04-20T15:44:32.394Z,4.03
2023-04-20T15:47:01.469Z,3.83
2023-04-20T15:49:29.560Z,3.55
2023-04-20T15:51:57.335Z,3.72
2023-04-20T15:54:25.513Z,3.45
2023-04-20T15:56:53.339Z,3.38
2023-04-20T15:59:22.555Z,3.50
2023-04-20T16:01:50.459Z,3.53
2023-04-20T16:04:18.755Z,3.35
2023-04-20T16:06:46.982Z,3.15
2023-04-20T16:09:14.868Z,3.45
2023-04-20T16:11:42.772Z,3.53
2023-04-20T16:14:10.624Z,3.60
2023-04-20T16:16:39.986Z,3.10
2023-04-20T16:19:07.808Z,3.33
2023-04-20T16:21:35.646Z,3.08
2023-04-20T16:24:03.458Z,3.25
2023-04-20T16:26:31.324Z,3.28
2023-04-20T16:28:59.122Z,3.35
2023-04-20T16:31:27.699Z,3.40
2023-04-20T16:33:58.523Z,3.70
2023-04-20T16:36:27.008Z,3.60
2023-04-20T16:38:54.823Z,3.10
2023-04-20T16:41:23.108Z,3.00
2023-04-20T16:43:50.914Z,3.78
2023-04-20T16:46:22.082Z,3.35
2023-04-20T16:48:50.878Z,3.22
2023-04-20T16:51:20.223Z,3.25
2023-04-20T16:53:48.190Z,3.25
2023-04-20T16:56:16.574Z,3.67
2023-04-20T16:58:44.407Z,2.75
2023-04-20T17:01:14.680Z,3.70
2023-04-20T17:03:42.765Z,3.83
2023-04-20T17:06:10.788Z,3.90
2023-04-20T17:08:40.026Z,5.75
2023-04-20T17:11:07.945Z,4.30
2023-04-20T17:13:35.794Z,3.90
2023-04-20T17:16:03.738Z,4.18
2023-04-20T17:18:34.215Z,4.20
2023-04-20T17:21:02.872Z,3.60
2023-04-20T17:23:30.898Z,4.10
2023-04-20T17:26:00.242Z,5.00
2023-04-20T17:28:27.996Z,4.32
2023-04-20T17:30:56.129Z,4.57
2023-04-20T17:33:23.920Z,4.18
2023-04-20T17:35:51.813Z,4.38
2023-04-20T17:38:19.714Z,4.50
2023-04-20T17:40:47.505Z,4.25
2023-04-20T17:43:16.639Z,4.72
2023-04-20T17:45:44.536Z,3.60
2023-04-20T17:48:12.402Z,4.57
2023-04-20T17:50:40.221Z,4.38
2023-04-20T17:53:08.498Z,4.45
2023-04-20T17:55:36.511Z,4.70
2023-04-20T17:58:04.328Z,4.40
2023-04-20T18:00:33.540Z,4.03
2023-04-20T18:03:01.500Z,4.43
2023-04-20T18:05:29.465Z,4.22
2023-04-20T18:07:57.386Z,4.45
2023-04-20T18:10:25.221Z,4.07
2023-04-20T18:12:53.759Z,4.85
2023-04-20T18:15:23.006Z,4.50
2023-04-20T18:17:53.310Z,4.90
2023-04-20T18:20:21.524Z,4.47
2023-04-20T18:22:50.529Z,4.57
2023-04-20T18:25:19.244Z,4.40
2023-04-20T18:27:47.195Z,4.80
2023-04-20T18:30:15.801Z,5.40
2023-04-20T18:32:43.712Z,5.00
2023-04-20T18:35:13.020Z,5.10
2023-04-20T18:37:41.021Z,5.53
2023-04-20T18:40:09.924Z,5.30
2023-04-20T18:42:37.772Z,5.45
2023-04-20T18:45:07.074Z,5.20
2023-04-20T18:47:34.993Z,5.63
2023-04-20T18:50:02.974Z,5.43
2023-04-20T18:52:35.002Z,5.63
2023-04-20T18:55:03.908Z,6.10
2023-04-20T18:57:31.783Z,6.43
2023-04-20T18:59:59.610Z,6.18
2023-04-20T19:02:27.767Z,6.15
2023-04-20T19:04:55.785Z,6.68
2023-04-20T19:07:23.717Z,6.47
2023-04-20T19:09:52.992Z,6.32
2023-04-20T19:12:21.208Z,6.38
2023-04-20T19:14:49.554Z,6.15
2023-04-20T19:17:17.524Z,6.32
2023-04-20T19:19:45.977Z,6.35
2023-04-20T19:22:13.895Z,6.32
2023-04-20T19:24:41.936Z,6.57
2023-04-20T19:27:11.308Z,6.68
2023-04-20T19:29:39.196Z,6.72
2023-04-20T19:32:07.487Z,7.50
2023-04-20T19:34:35.602Z,7.32
2023-04-20T19:37:03.484Z,7.28
2023-04-20T19:39:33.614Z,7.53
2023-04-20T19:42:02.629Z,7.38
2023-04-20T19:44:31.949Z,7.25
2023-04-20T19:47:00.868Z,7.13
2023-04-20T19:49:28.871Z,7.47
2023-04-20T19:51:57.218Z,7.28
2023-04-20T19:54:25.149Z,7.00
2023-04-20T19:56:53.197Z,7.82
2023-04-20T19:59:21.250Z,7.65
2023-04-20T20:01:51.101Z,7.50
2023-04-20T20:04:20.460Z,7.80
2023-04-20T20:06:50.775Z,8.00
2023-04-20T20:09:21.511Z,8.68
2023-04-20T20:11:51.560Z,8.25
2023-04-20T20:14:19.700Z,8.70
2023-04-20T20:16:47.576Z,8.70
2023-04-20T20:19:18.167Z,8.63
2023-04-20T20:21:46.297Z,9.55
2023-04-20T20:24:14.148Z,8.82
2023-04-20T20:26:42.306Z,8.70
2023-04-20T20:29:10.337Z,8.25
2023-04-20T20:31:38.282Z,8.50
2023-04-20T20:34:09.083Z,9.23
2023-04-20T20:36:42.641Z,9.80
2023-04-20T20:39:10.676Z,9.23
2023-04-20T20:41:42.752Z,9.32
2023-04-20T20:44:11.257Z,10.10
2023-04-20T20:46:39.644Z,9.82
2023-04-20T20:49:07.820Z,7.38
2023-04-20T20:51:35.772Z,9.68
2023-04-20T20:54:05.349Z,10.13
2023-04-20T20:56:33.214Z,9.88
2023-04-20T20:59:01.122Z,10.25
2023-04-20T21:01:29.011Z,9.73
2023-04-20T21:03:56.952Z,10.45
2023-04-20T21:06:24.864Z,10.43
2023-04-20T21:08:52.799Z,10.30
2023-04-20T21:11:21.907Z,9.68
2023-04-20T21:13:49.768Z,11.27
2023-04-20T21:16:17.766Z,10.73
2023-04-20T21:18:45.766Z,11.10
2023-04-20T21:21:13.775Z,11.50
2023-04-20T21:23:41.880Z,10.70
2023-04-20T21:26:09.741Z,11.18
2023-04-20T21:28:39.083Z,11.30
2023-04-20T21:31:08.119Z,12.43
2023-04-20T21:33:37.458Z,12.25
2023-04-20T21:36:06.009Z,12.23
2023-04-20T21:38:33.833Z,11.85
2023-04-20T21:41:01.948Z,11.90
2023-04-20T21:43:29.854Z,11.48
2023-04-20T21:45:59.139Z,12.25
2023-04-20T21:48:27.030Z,12.50
2023-04-20T21:50:54.858Z,13.45
2023-04-20T21:53:22.821Z,12.48
2023-04-20T21:55:51.098Z,12.65
2023-04-20T21:58:19.201Z,14.27
2023-04-20T22:00:47.604Z,18.70
2023-04-20T22:03:16.996Z,18.02
2023-04-20T22:05:45.024Z,16.42
2023-04-20T22:08:14.450Z,13.40
2023-04-20T22:10:42.443Z,12.85
2023-04-20T22:13:10.438Z,12.52
2023-04-20T22:15:38.386Z,12.73
2023-04-20T22:18:06.756Z,13.05
2023-04-20T22:20:36.874Z,13.18
2023-04-20T22:23:05.272Z,13.10
2023-04-20T22:25:33.311Z,12.73
2023-04-20T22:28:01.138Z,12.75
2023-04-20T22:30:29.219Z,12.70
2023-04-20T22:32:57.111Z,13.48
2023-04-20T22:35:24.972Z,13.43
2023-04-20T22:37:54.248Z,12.98
2023-04-20T22:40:22.150Z,13.38
2023-04-20T22:42:50.728Z,13.20
2023-04-20T22:45:20.476Z,13.60
2023-04-20T22:47:48.711Z,14.27
2023-04-20T22:50:16.864Z,14.40
2023-04-20T22:52:44.699Z,14.10
2023-04-20T22:55:14.621Z,14.65
2023-04-20T22:57:42.523Z,14.05
2023-04-20T23:00:13.654Z,14.27
2023-04-20T23:02:41.838Z,13.80
2023-04-20T23:05:10.738Z,13.95
2023-04-20T23:07:39.424Z,14.02
2023-04-20T23:10:08.849Z,12.95
2023-04-20T23:12:38.286Z,13.45
2023-04-20T23:15:06.839Z,14.18
2023-04-20T23:17:34.724Z,13.35
2023-04-20T23:20:02.591Z,14.30
2023-04-20T23:22:30.756Z,13.30
2023-04-20T23:24:58.757Z,13.60
2023-04-20T23:27:26.539Z,13.85
2023-04-20T23:29:55.796Z,13.82
2023-04-20T23:32:23.681Z,13.13
2023-04-20T23:34:51.553Z,13.63
2023-04-20T23:37:19.366Z,13.07
2023-04-20T23:39:47.203Z,13.73
2023-04-20T23:42:15.480Z,13.98
2023-04-20T23:44:43.425Z,14.57
2023-04-20T23:47:12.612Z,13.63
2023-04-20T23:49:40.492Z,13.27
2023-04-20T23:52:08.395Z,14.20
2023-04-20T23:54:36.165Z,13.40
2023-04-20T23:57:03.990Z,14.65
2023-04-20T23:59:31.928Z,14.07
